logo
Search for airport 
image banner adimage banner adimage banner ad
image banner ad

YSNSD - Sunnyside

Located in Vergemont, Australia

ICAO - , IATA -

Data provided by Airmate  

General information

Coordinates: S23°56'47" E143°18'24"
Elevation is 615 feet MSL.
Magnetic variation is 7° East
View others Airports in Queensland

Operational data

Special qualification required
Current time UTC:
Current local time:
Weather at : - ( 0 km )
METAR: PKWA 141640Z AUTO 06006KT 10SM SCT018 BKN024 BKN041 27/25 A2980 RMK AO2 P0014 T02700250
View NOTAMs / SUP AIP / TFR affecting this airport [VIEW]
Communications frequencies: [VIEW]

Runways:

RWY identifierQFULength (ft)Width (ft)SurfaceLDA (ft)
0333°309147DIRT
21213°309147DIRT
33335°296063DIRT
15155°296063DIRT

Airport contact information

Address: Vergemont Australia

Satellite view of YSNSD